createdAt,value
2024-01-06T00:01:53.970Z,1010.9
2024-01-06T00:07:08.837Z,1010.9
2024-01-06T00:12:51.623Z,1010.9
2024-01-06T00:18:25.429Z,1011
2024-01-06T00:24:02.159Z,1011
2024-01-06T00:29:36.998Z,1011.2
2024-01-06T00:34:54.420Z,1011.2
2024-01-06T00:40:32.461Z,1011.3
2024-01-06T00:46:21.777Z,1011.3
2024-01-06T00:51:38.335Z,1011.3
2024-01-06T00:57:27.647Z,1011.4
2024-01-06T01:03:07.304Z,1011.5
2024-01-06T01:08:25.603Z,1011.4
2024-01-06T01:13:52.435Z,1011.5
2024-01-06T01:19:39.681Z,1011.5
2024-01-06T01:25:22.007Z,1011.6
2024-01-06T01:30:43.672Z,1011.6
2024-01-06T01:36:10.194Z,1011.7
2024-01-06T01:42:05.841Z,1011.8
2024-01-06T01:47:20.033Z,1011.9
2024-01-06T01:53:13.495Z,1011.9
2024-01-06T01:58:48.743Z,1012
2024-01-06T02:04:04.950Z,1012.1
2024-01-06T02:09:54.472Z,1011.9
2024-01-06T02:15:13.465Z,1012
2024-01-06T02:20:49.372Z,1012
2024-01-06T02:26:30.291Z,1012.1
2024-01-06T02:32:03.940Z,1012.1
2024-01-06T02:37:19.785Z,1012.3
2024-01-06T02:43:03.634Z,1012.2
2024-01-06T02:48:37.146Z,1012.2
2024-01-06T02:54:07.713Z,1012.2
2024-01-06T02:59:48.244Z,1012.3
2024-01-06T03:05:10.098Z,1012.4
2024-01-06T03:10:56.303Z,1012.4
2024-01-06T03:16:16.164Z,1012.4
2024-01-06T03:21:47.534Z,1012.3
2024-01-06T03:27:26.772Z,1012.2
2024-01-06T03:33:24.011Z,1012.1
2024-01-06T03:38:46.615Z,1012
2024-01-06T03:44:19.935Z,1011.9
2024-01-06T03:49:47.977Z,1011.8
2024-01-06T03:55:18.537Z,1011.8
2024-01-06T04:06:23.738Z,1011.8
2024-01-06T04:11:57.609Z,1011.8
2024-01-06T04:17:43.582Z,1011.9
2024-01-06T04:23:26.142Z,1011.9
2024-01-06T04:28:36.224Z,1011.8
2024-01-06T04:34:21.603Z,1012
2024-01-06T04:39:41.824Z,1011.9
2024-01-06T04:45:32.760Z,1012
2024-01-06T04:50:55.432Z,1012
2024-01-06T04:56:21.915Z,1011.9
2024-01-06T05:02:17.237Z,1012.1
2024-01-06T05:07:49.888Z,1012
2024-01-06T05:12:59.018Z,1012.1
2024-01-06T05:18:46.260Z,1012.1
2024-01-06T05:24:06.026Z,1012.2
2024-01-06T05:29:56.831Z,1012.2
2024-01-06T05:40:51.718Z,1012.2
2024-01-06T05:46:36.988Z,1012.2
2024-01-06T05:52:02.076Z,1012.3
2024-01-06T05:57:48.355Z,1012.4
2024-01-06T06:03:21.062Z,1012.5
2024-01-06T06:08:56.287Z,1012.5
2024-01-06T06:14:15.583Z,1012.6
2024-01-06T06:19:50.968Z,1012.7
2024-01-06T06:31:14.349Z,1012.7
2024-01-06T06:36:32.570Z,1012.7
2024-01-06T06:42:18.508Z,1012.7
2024-01-06T06:47:54.216Z,1012.8
2024-01-06T06:53:24.393Z,1013
2024-01-06T06:58:56.646Z,1013
2024-01-06T07:04:10.292Z,1013
2024-01-06T07:10:07.738Z,1013
2024-01-06T07:15:15.089Z,1013
2024-01-06T07:20:49.893Z,1013.1
2024-01-06T07:26:36.185Z,1013
2024-01-06T07:32:04.211Z,1013
2024-01-06T07:37:55.200Z,1013.1
2024-01-06T07:43:03.694Z,1013
2024-01-06T07:48:59.671Z,1013.1
2024-01-06T07:54:24.655Z,1013.2
2024-01-06T07:59:49.333Z,1013.2
2024-01-06T08:05:16.708Z,1013.3
2024-01-06T08:11:12.477Z,1013.4
2024-01-06T08:16:45.157Z,1013.5
2024-01-06T08:22:20.803Z,1013.6
2024-01-06T08:27:57.146Z,1013.6
2024-01-06T08:33:26.980Z,1013.7
2024-01-06T08:38:57.136Z,1013.8
2024-01-06T08:44:13.767Z,1013.9
2024-01-06T08:50:09.514Z,1013.8
2024-01-06T08:55:23.798Z,1013.8
2024-01-06T09:01:18.134Z,1013.7
2024-01-06T09:06:36.301Z,1013.8
2024-01-06T09:12:05.391Z,1013.7
2024-01-06T09:17:57.155Z,1013.7
2024-01-06T09:23:09.257Z,1013.6
2024-01-06T09:29:05.329Z,1013.7
2024-01-06T09:34:20.659Z,1013.6
2024-01-06T09:40:10.674Z,1013.7
2024-01-06T10:13:44.954Z,1013.4
2024-01-06T10:19:09.186Z,1013
2024-01-06T10:24:29.600Z,1012.6
2024-01-06T10:30:13.420Z,1012.4
2024-01-06T10:36:03.619Z,1012.1
2024-01-06T10:41:29.493Z,1012
2024-01-06T10:46:46.081Z,1012.1
2024-01-06T10:52:26.542Z,1012.2
2024-01-06T10:57:57.445Z,1012
2024-01-06T11:03:42.230Z,1011.8
2024-01-06T11:09:25.345Z,1011.8
2024-01-06T11:14:58.220Z,1011.9
2024-01-06T11:26:08.307Z,1011.6
2024-01-06T11:31:43.504Z,1011.6
2024-01-06T11:37:26.792Z,1011.6
2024-01-06T11:48:40.156Z,1011.5
2024-01-06T11:54:03.298Z,1011.6
2024-01-06T13:29:18.912Z,1011
2024-01-06T13:34:38.967Z,1011.3
2024-01-06T14:02:53.876Z,1011.7
2024-01-06T14:08:35.515Z,1011.8
2024-01-06T14:13:42.317Z,1011.9
2024-01-06T14:25:08.923Z,1012.1
2024-01-06T14:30:34.935Z,1012.2
2024-01-06T14:36:05.554Z,1012.2
2024-01-06T14:42:06.654Z,1012.2
2024-01-06T14:47:29.024Z,1012.3
2024-01-06T14:52:51.721Z,1012.4
2024-01-06T14:58:40.783Z,1012.4
2024-01-06T15:04:18.961Z,1012.4
2024-01-06T15:37:51.997Z,1012.5
2024-01-06T15:54:17.311Z,1012.5
2024-01-06T16:00:10.847Z,1012.5
2024-01-06T16:05:24.047Z,1012.6
2024-01-06T16:11:05.065Z,1012.7
2024-01-06T17:23:48.890Z,1013.2
2024-01-06T22:25:24.985Z,1015
